Time;durP1;ratioP1;P1;durP2;ratioP2;P2;SDS_P1;SDS_P2;PMS_P1;PMS_P2;Temp;Humidity;BMP_temperature;BMP_pressure;BME280_temperature;BME280_humidity;BME280_pressure;Samples;Min_cycle;Max_cycle;Signal;HPM_P1;HPM_P2
2023/09/01 00:02:19;;;;;;;;;;;;;;;16.24;70.42;97912.19;5006867;28;19936;-85
2023/09/01 00:05:00;;;;;;;;;;;;;;;16.28;70.61;97908.72;4991084;28;19932;-85
2023/09/01 00:07:29;;;;;;;;;;;;;;;16.19;71.42;97909.69;4987782;28;19930;-85
2023/09/01 00:09:57;;;;;;;;;;;;;;;16.22;71.16;97906.22;4990721;28;19936;-84
2023/09/01 00:12:26;;;;;;;;;;;;;;;16.19;71.43;97909.69;4985731;28;19940;-85
2023/09/01 00:14:55;;;;;;;;;;;;;;;16.22;71.68;97910.91;4998668;28;20278;-85
2023/09/01 00:17:25;;;;;;;;;;;;;;;16.20;71.92;97915.97;4991569;28;19972;-84
2023/09/01 00:19:53;;;;;;;;;;;;;;;16.15;72.21;97914.25;4983525;28;19926;-85
2023/09/01 00:22:21;;;;;;;;;;;;;;;16.17;72.28;97911.16;4995365;28;19927;-85
2023/09/01 00:24:49;;;;;;;;;;;;;;;16.14;72.83;97901.72;4992926;28;19925;-88
2023/09/01 00:27:17;;;;;;;;;;;;;;;16.15;73.28;97908.78;4988195;28;19926;-89
2023/09/01 00:29:45;;;;;;;;;;;;;;;16.15;73.85;97902.50;4993889;28;19930;-88
2023/09/01 00:32:13;;;;;;;;;;;;;;;16.14;74.44;97909.94;5001990;28;19926;-89
2023/09/01 00:34:42;;;;;;;;;;;;;;;16.10;74.89;97911.75;4984943;28;19933;-89
2023/09/01 00:37:11;;;;;;;;;;;;;;;16.10;74.89;97911.75;4970248;28;19996;-89
2023/09/01 00:39:39;;;;;;;;;;;;;;;16.07;75.65;97906.97;4974966;28;19929;-89
2023/09/01 00:42:07;;;;;;;;;;;;;;;16.08;75.48;97905.81;4983063;28;19930;-89
2023/09/01 00:44:35;;;;;;;;;;;;;;;16.08;75.42;97905.81;4978815;28;19926;-89
2023/09/01 00:47:06;;;;;;;;;;;;;;;16.06;76.00;97904.56;4969671;28;19925;-89
2023/09/01 00:49:34;;;;;;;;;;;;;;;16.00;76.21;97904.03;5002177;28;20386;-89
2023/09/01 00:52:04;;;;;;;;;;;;;;;16.01;76.21;97905.63;4983727;28;19969;-88
2023/09/01 00:54:32;;;;;;;;;;;;;;;16.02;76.29;97906.41;4990072;28;19930;-89
2023/09/01 00:57:00;;;;;;;;;;;;;;;15.98;76.15;97906.31;4985578;28;19927;-89
2023/09/01 00:59:28;;;;;;;;;;;;;;;15.95;76.92;97904.25;4986416;28;19933;-89
2023/09/01 01:01:56;;;;;;;;;;;;;;;15.92;77.16;97904.94;4985982;28;19926;-89
2023/09/01 01:04:25;;;;;;;;;;;;;;;15.88;77.51;97904.84;4996213;28;20389;-89
2023/09/01 01:06:56;;;;;;;;;;;;;;;15.90;77.51;97901.75;5007563;28;20324;-89
2023/09/01 01:09:39;;;;;;;;;;;;;;;15.86;77.17;97898.13;4987055;28;19933;-89
2023/09/01 01:12:10;;;;;;;;;;;;;;;15.79;77.29;97892.44;4980230;28;20378;-89
2023/09/01 01:14:40;;;;;;;;;;;;;;;15.80;77.14;97891.28;4988691;28;20072;-89
2023/09/01 01:17:09;;;;;;;;;;;;;;;15.77;77.59;97883.78;4990912;28;19926;-89
2023/09/01 01:19:41;;;;;;;;;;;;;;;15.75;77.99;97883.31;4989123;28;19926;-89
2023/09/01 01:22:10;;;;;;;;;;;;;;;15.77;78.24;97886.50;4989320;28;19930;-89
2023/09/01 01:24:40;;;;;;;;;;;;;;;15.74;78.04;97879.78;5004271;28;19926;-89
2023/09/01 01:27:08;;;;;;;;;;;;;;;15.76;78.52;97884.91;5006556;28;19930;-89
2023/09/01 01:29:36;;;;;;;;;;;;;;;15.56;77.92;97878.41;4990187;28;19929;-89
2023/09/01 01:32:04;;;;;;;;;;;;;;;15.47;78.54;97875.78;4990085;28;19934;-89
2023/09/01 01:34:34;;;;;;;;;;;;;;;15.52;78.80;97872.03;4991684;28;20396;-82
2023/09/01 01:37:05;;;;;;;;;;;;;;;15.48;79.07;97863.69;4995628;28;19936;-80
2023/09/01 01:39:34;;;;;;;;;;;;;;;15.52;78.93;97869.28;4989885;28;20243;-79
2023/09/01 01:42:06;;;;;;;;;;;;;;;15.56;79.21;97876.47;4984563;28;19930;-81
2023/09/01 01:44:35;;;;;;;;;;;;;;;15.59;79.14;97870.28;4988876;28;19933;-76
2023/09/01 01:47:03;;;;;;;;;;;;;;;15.57;78.71;97872.59;4938471;28;1813579;-78
2023/09/01 01:49:31;;;;;;;;;;;;;;;15.60;78.75;97863.66;4990146;28;20040;-78
2023/09/01 01:52:01;;;;;;;;;;;;;;;15.63;78.68;97862.22;4989150;28;19961;-80
2023/09/01 01:54:29;;;;;;;;;;;;;;;15.60;78.57;97866.41;4977541;28;19932;-78
2023/09/01 01:56:56;;;;;;;;;;;;;;;15.63;78.47;97864.97;4986159;28;19992;-78
2023/09/01 01:59:26;;;;;;;;;;;;;;;15.59;78.69;97859.34;5004752;28;19948;-78
2023/09/01 02:02:20;;;;;;;;;;;;;;;15.58;79.03;97863.22;4988399;28;19957;-80
2023/09/01 02:05:13;;;;;;;;;;;;;;;15.54;79.07;97856.03;4986851;28;19934;-81
2023/09/01 02:07:41;;;;;;;;;;;;;;;15.42;79.31;97854.91;4997557;28;19937;-83
2023/09/01 02:10:09;;;;;;;;;;;;;;;15.35;79.24;97853.91;4986678;28;19984;-81
2023/09/01 02:12:37;;;;;;;;;;;;;;;15.37;79.77;97846.94;4983689;28;19930;-81
2023/09/01 02:15:09;;;;;;;;;;;;;;;15.32;79.85;97846.38;4994997;28;19926;-80
2023/09/01 02:17:37;;;;;;;;;;;;;;;15.32;80.07;97851.84;5002187;28;19958;-82
2023/09/01 02:20:16;;;;;;;;;;;;;;;15.34;80.33;97853.13;5003334;28;19933;-81
2023/09/01 02:22:44;;;;;;;;;;;;;;;15.27;80.18;97846.59;4970114;28;20009;-81
2023/09/01 02:25:13;;;;;;;;;;;;;;;15.26;80.30;97848.56;4989093;28;20024;-82
2023/09/01 02:27:41;;;;;;;;;;;;;;;15.33;80.93;97856.19;4984182;28;19930;-82
2023/09/01 02:30:11;;;;;;;;;;;;;;;15.34;81.10;97852.28;5006251;28;19935;-80
2023/09/01 02:32:39;;;;;;;;;;;;;;;15.38;81.08;97853.22;4979324;28;19930;-80
2023/09/01 02:35:08;;;;;;;;;;;;;;;15.36;81.60;97858.25;4986004;28;19930;-79
2023/09/01 02:37:36;;;;;;;;;;;;;;;15.35;81.06;97851.19;4985340;28;19936;-80
2023/09/01 02:40:10;;;;;;;;;;;;;;;15.41;81.36;97844.31;4969920;28;19926;-82
2023/09/01 02:42:39;;;;;;;;;;;;;;;15.38;81.42;97847.72;4987244;28;19930;-80
2023/09/01 02:45:09;;;;;;;;;;;;;;;15.38;81.67;97847.72;4986494;28;19926;-80
2023/09/01 02:47:40;;;;;;;;;;;;;;;15.41;81.37;97841.59;4986703;28;19934;-78
2023/09/01 02:50:08;;;;;;;;;;;;;;;15.41;81.77;97836.91;4990873;28;19925;-80
2023/09/01 02:52:36;;;;;;;;;;;;;;;15.40;81.66;97840.00;4987474;28;20285;-81
2023/09/01 02:55:06;;;;;;;;;;;;;;;15.36;81.20;97841.81;4993462;28;19926;-82
2023/09/01 02:57:35;;;;;;;;;;;;;;;15.38;81.50;97837.56;4991515;28;20424;-82
2023/09/01 03:00:14;;;;;;;;;;;;;;;15.37;81.37;97838.72;4991843;28;19926;-80
2023/09/01 03:02:44;;;;;;;;;;;;;;;15.39;81.78;97843.84;5002845;28;20465;-81
2023/09/01 03:05:14;;;;;;;;;;;;;;;15.40;81.55;97840.00;4993347;28;19925;-81
2023/09/01 03:07:42;;;;;;;;;;;;;;;15.38;81.73;97839.53;4978276;28;19934;-80
2023/09/01 03:10:10;;;;;;;;;;;;;;;15.41;81.76;97836.91;4991739;28;20312;-82
2023/09/01 03:12:39;;;;;;;;;;;;;;;15.43;81.83;97829.13;4984040;28;19933;-81
2023/09/01 03:15:07;;;;;;;;;;;;;;;15.39;82.14;97822.78;4986427;28;19930;-81
2023/09/01 03:17:36;;;;;;;;;;;;;;;15.41;81.93;97830.63;4972595;28;19940;-81
2023/09/01 03:20:08;;;;;;;;;;;;;;;15.40;82.23;97829.03;5003556;28;20032;-83
2023/09/01 03:22:37;;;;;;;;;;;;;;;15.43;82.33;97823.66;4992395;28;19925;-82
2023/09/01 03:25:09;;;;;;;;;;;;;;;15.37;81.98;97813.28;4997616;28;19956;-85
2023/09/01 03:27:39;;;;;;;;;;;;;;;15.37;82.03;97818.78;4988805;28;19926;-82
2023/09/01 03:30:09;;;;;;;;;;;;;;;15.38;82.29;97818.41;4989798;28;19953;-82
2023/09/01 03:32:42;;;;;;;;;;;;;;;15.36;82.35;97804.28;4987441;28;20036;-82
2023/09/01 03:35:12;;;;;;;;;;;;;;;15.30;82.38;97808.41;4994435;28;19926;-83
2023/09/01 03:37:40;;;;;;;;;;;;;;;15.28;82.04;97807.13;5005644;28;19926;-82
2023/09/01 03:40:09;;;;;;;;;;;;;;;15.33;82.26;97807.69;4992858;28;19926;-83
2023/09/01 03:42:37;;;;;;;;;;;;;;;15.37;82.26;97810.56;5000850;28;19930;-82
2023/09/01 03:45:06;;;;;;;;;;;;;;;15.37;81.86;97803.16;4983537;28;19930;-82
2023/09/01 03:47:34;;;;;;;;;;;;;;;15.36;82.24;97801.56;5000619;28;19941;-81
2023/09/01 03:50:02;;;;;;;;;;;;;;;15.32;82.50;97810.78;4986417;28;19930;-81
2023/09/01 03:52:32;;;;;;;;;;;;;;;15.38;82.67;97810.22;4981502;28;19930;-81
2023/09/01 03:55:00;;;;;;;;;;;;;;;15.31;82.79;97815.47;4993278;28;20374;-86
2023/09/01 03:57:30;;;;;;;;;;;;;;;15.31;82.87;97807.25;5004725;28;20012;-87
2023/09/01 03:59:58;;;;;;;;;;;;;;;15.34;83.32;97813.97;4984380;28;19926;-88
2023/09/01 04:02:26;;;;;;;;;;;;;;;15.25;82.96;97796.91;4988981;28;19930;-88
2023/09/01 04:04:55;;;;;;;;;;;;;;;15.27;83.04;97808.28;4996905;28;19988;-88
2023/09/01 04:07:22;;;;;;;;;;;;;;;15.32;82.85;97811.59;4991180;28;21906;-88
2023/09/01 04:09:52;;;;;;;;;;;;;;;15.27;82.88;97813.75;4988338;28;19925;-88
2023/09/01 04:12:20;;;;;;;;;;;;;;;15.33;82.88;97809.66;5006420;28;20439;-88
2023/09/01 04:14:48;;;;;;;;;;;;;;;15.36;82.84;97808.97;4991640;28;19930;-88
2023/09/01 04:17:16;;;;;;;;;;;;;;;15.39;82.63;97814.56;4982196;28;20012;-88
2023/09/01 04:19:46;;;;;;;;;;;;;;;15.38;82.58;97812.16;4989025;28;20304;-88
2023/09/01 04:22:14;;;;;;;;;;;;;;;15.39;82.43;97809.09;4989567;28;19952;-88
2023/09/01 04:24:43;;;;;;;;;;;;;;;15.36;82.95;97811.72;4985360;28;20275;-89
2023/09/01 04:27:12;;;;;;;;;;;;;;;15.38;82.61;97812.16;4992504;28;19929;-88
2023/09/01 04:29:40;;;;;;;;;;;;;;;15.38;82.85;97807.47;4987982;28;19926;-88
2023/09/01 04:32:11;;;;;;;;;;;;;;;15.39;82.80;97808.25;4999670;28;20020;-88
2023/09/01 04:34:39;;;;;;;;;;;;;;;15.36;82.59;97808.97;4992007;28;19930;-88
2023/09/01 04:37:07;;;;;;;;;;;;;;;15.37;82.75;97797.66;4991373;28;19940;-87
2023/09/01 04:39:35;;;;;;;;;;;;;;;15.36;82.76;97806.22;5005635;28;19926;-87
2023/09/01 04:42:03;;;;;;;;;;;;;;;15.33;82.93;97802.22;4989745;28;19980;-89
2023/09/01 04:44:32;;;;;;;;;;;;;;;15.36;83.00;97808.97;4988685;28;19932;-87
2023/09/01 04:46:59;;;;;;;;;;;;;;;15.35;83.28;97804.66;4991493;28;19936;-88
2023/09/01 04:49:28;;;;;;;;;;;;;;;15.38;83.29;97802.00;4991540;28;20034;-87
2023/09/01 04:51:55;;;;;;;;;;;;;;;15.40;83.15;97796.19;4990133;28;19926;-84
2023/09/01 04:54:23;;;;;;;;;;;;;;;15.42;82.87;97802.09;4989305;28;20416;-86
2023/09/01 04:56:51;;;;;;;;;;;;;;;15.43;82.93;97803.69;4990997;28;20476;-87
2023/09/01 04:59:19;;;;;;;;;;;;;;;15.45;82.93;97798.69;4989418;28;20306;-84
2023/09/01 05:01:49;;;;;;;;;;;;;;;15.41;83.04;97800.53;4987602;28;19926;-87
2023/09/01 05:04:17;;;;;;;;;;;;;;;15.38;83.19;97806.69;5005605;28;20384;-87
2023/09/01 05:06:46;;;;;;;;;;;;;;;15.42;83.32;97799.38;4988107;28;19926;-84
2023/09/01 05:09:15;;;;;;;;;;;;;;;15.41;83.29;97806.78;4984392;28;20337;-87
2023/09/01 05:11:43;;;;;;;;;;;;;;;15.40;83.08;97809.88;4990737;28;19985;-88
2023/09/01 05:14:12;;;;;;;;;;;;;;;15.41;82.87;97814.22;5008426;28;19926;-89
2023/09/01 05:16:40;;;;;;;;;;;;;;;15.39;82.69;97819.22;4989007;28;20715;-91
2023/09/01 05:19:10;;;;;;;;;;;;;;;15.39;83.03;97821.94;4990280;28;19925;-87
2023/09/01 05:21:38;;;;;;;;;;;;;;;15.29;83.22;97811.50;5000613;28;19933;-86
2023/09/01 05:24:06;;;;;;;;;;;;;;;15.23;83.12;97797.22;4987106;28;19933;-87
2023/09/01 05:26:35;;;;;;;;;;;;;;;15.29;83.83;97811.50;4986569;28;19933;-88
2023/09/01 05:29:03;;;;;;;;;;;;;;;15.22;84.01;97822.22;4988660;28;19929;-88
2023/09/01 05:31:31;;;;;;;;;;;;;;;15.26;83.96;97820.38;4973181;28;19926;-88
2023/09/01 05:34:02;;;;;;;;;;;;;;;15.31;83.97;97817.41;5007323;28;19973;-91
2023/09/01 05:36:32;;;;;;;;;;;;;;;15.32;84.10;97810.78;5004006;28;19925;-91
2023/09/01 05:39:00;;;;;;;;;;;;;;;15.32;84.17;97808.06;4986332;28;20342;-91
2023/09/01 05:41:28;;;;;;;;;;;;;;;15.34;84.79;97808.50;4987914;28;20381;-91
2023/09/01 05:43:57;;;;;;;;;;;;;;;15.32;84.99;97817.06;5009667;28;19933;-91
2023/09/01 05:46:26;;;;;;;;;;;;;;;15.32;84.86;97810.78;5001834;28;19926;-91
2023/09/01 05:48:55;;;;;;;;;;;;;;;15.36;85.00;97814.44;4985233;28;19925;-92
2023/09/01 05:51:23;;;;;;;;;;;;;;;15.41;84.82;97814.22;4988022;28;19929;-91
2023/09/01 05:53:53;;;;;;;;;;;;;;;15.43;84.91;97817.38;4986711;28;19934;-92
2023/09/01 05:56:21;;;;;;;;;;;;;;;15.46;84.99;97822.19;4998073;28;20358;-91
2023/09/01 05:58:49;;;;;;;;;;;;;;;15.46;85.16;97813.97;5001647;28;19957;-90
2023/09/01 06:01:20;;;;;;;;;;;;;;;15.45;85.03;97826.06;4989160;28;19980;-90
2023/09/01 06:03:49;;;;;;;;;;;;;;;15.49;84.93;97829.69;4986333;28;19936;-88
2023/09/01 06:06:19;;;;;;;;;;;;;;;15.50;84.99;97828.56;4984901;28;19935;-92
2023/09/01 06:08:46;;;;;;;;;;;;;;;15.49;85.01;97832.44;4988130;28;19941;-90
2023/09/01 06:11:16;;;;;;;;;;;;;;;15.49;85.17;97842.59;4985663;28;19980;-91
2023/09/01 06:13:45;;;;;;;;;;;;;;;15.53;85.34;97836.06;4978521;28;19934;-96
2023/09/01 06:16:14;;;;;;;;;;;;;;;15.53;85.13;97838.81;4986450;28;19942;-94
2023/09/01 06:18:42;;;;;;;;;;;;;;;15.55;85.41;97833.78;5003382;28;19941;-94
2023/09/01 06:21:15;;;;;;;;;;;;;;;15.57;85.51;97839.72;4988776;28;19933;-95
2023/09/01 06:23:44;;;;;;;;;;;;;;;15.56;85.53;97840.88;4987045;28;20890;-92
2023/09/01 06:26:12;;;;;;;;;;;;;;;15.54;85.69;97851.34;5008470;28;19925;-93
2023/09/01 06:28:41;;;;;;;;;;;;;;;15.56;85.56;97845.56;5001273;28;19926;-89
2023/09/01 06:31:09;;;;;;;;;;;;;;;15.56;85.49;97849.09;4997297;28;19926;-90
2023/09/01 06:33:37;;;;;;;;;;;;;;;15.60;85.51;97849.19;4990839;28;19930;-92
2023/09/01 06:36:06;;;;;;;;;;;;;;;15.62;85.32;97852.38;4999822;28;19977;-95
2023/09/01 06:38:36;;;;;;;;;;;;;;;15.63;85.58;97854.00;4998324;28;19933;-95
2023/09/01 06:41:12;;;;;;;;;;;;;;;15.62;85.54;97850.44;5014027;28;19984;-96
2023/09/01 06:43:40;;;;;;;;;;;;;;;15.68;85.54;97842.81;4992921;28;19973;-94
2023/09/01 06:46:12;;;;;;;;;;;;;;;15.67;85.63;97852.97;4994005;28;19953;-94
2023/09/01 06:48:43;;;;;;;;;;;;;;;15.71;85.85;97851.16;4989126;28;19975;-93
2023/09/01 06:51:12;;;;;;;;;;;;;;;15.77;85.68;97850.91;4988088;28;19926;-93
2023/09/01 06:53:40;;;;;;;;;;;;;;;15.79;85.63;97849.41;5000852;28;19926;-94
2023/09/01 06:56:08;;;;;;;;;;;;;;;15.79;85.57;97851.34;4986358;28;20459;-92
2023/09/01 06:58:36;;;;;;;;;;;;;;;15.79;85.38;97851.34;4983739;28;19932;-89
2023/09/01 07:01:07;;;;;;;;;;;;;;;15.81;85.58;97854.53;4995778;28;20328;-89
2023/09/01 07:03:37;;;;;;;;;;;;;;;15.81;85.54;97849.84;4979968;28;21234;-88
2023/09/01 07:06:04;;;;;;;;;;;;;;;15.83;85.48;97860.47;4990402;28;20572;-89
2023/09/01 07:08:32;;;;;;;;;;;;;;;15.86;85.83;97860.56;4988832;28;19926;-88
2023/09/01 07:11:01;;;;;;;;;;;;;;;15.84;86.14;97853.84;4986687;28;19926;-89
2023/09/01 07:13:28;;;;;;;;;;;;;;;15.88;86.05;97868.44;4991978;28;19926;-88
2023/09/01 07:15:56;;;;;;;;;;;;;;;15.90;86.02;97857.94;5006014;28;19926;-87
2023/09/01 07:18:25;;;;;;;;;;;;;;;15.96;85.90;97862.00;4991282;28;19930;-88
2023/09/01 07:20:57;;;;;;;;;;;;;;;16.00;85.84;97862.91;4986542;28;19929;-88
2023/09/01 07:23:25;;;;;;;;;;;;;;;16.01;86.10;97864.50;4989168;28;19973;-87
2023/09/01 07:25:53;;;;;;;;;;;;;;;16.04;85.82;97863.03;4992217;28;19925;-88
2023/09/01 07:28:21;;;;;;;;;;;;;;;16.05;85.86;97859.94;4990951;28;19926;-87
2023/09/01 07:30:50;;;;;;;;;;;;;;;16.09;86.18;97866.31;4994080;28;19937;-90
2023/09/01 07:33:18;;;;;;;;;;;;;;;16.13;86.18;97871.88;4986406;28;19932;-86
2023/09/01 07:35:47;;;;;;;;;;;;;;;16.18;86.35;97869.69;4989936;28;19926;-87
2023/09/01 07:38:16;;;;;;;;;;;;;;;16.21;86.53;97879.97;4989303;28;20038;-86
2023/09/01 07:40:44;;;;;;;;;;;;;;;16.24;86.62;97879.28;4990721;28;19933;-91
2023/09/01 07:43:12;;;;;;;;;;;;;;;16.20;87.08;97878.38;4993574;28;19926;-89
2023/09/01 07:45:40;;;;;;;;;;;;;;;16.22;87.16;97876.06;4993225;28;19930;-87
2023/09/01 07:48:09;;;;;;;;;;;;;;;16.27;86.98;97875.03;5001794;28;19926;-89
2023/09/01 07:50:50;;;;;;;;;;;;;;;16.29;87.10;97882.91;4994802;28;19973;-91
2023/09/01 07:53:20;;;;;;;;;;;;;;;16.27;87.78;97887.94;4989232;28;19926;-93
2023/09/01 07:55:48;;;;;;;;;;;;;;;16.34;87.38;97883.44;5004525;28;19925;-89
2023/09/01 07:58:16;;;;;;;;;;;;;;;16.33;87.34;97884.59;4995677;28;19937;-90
2023/09/01 08:00:44;;;;;;;;;;;;;;;16.36;87.24;97885.84;4988372;28;20021;-93
2023/09/01 08:03:12;;;;;;;;;;;;;;;16.37;87.21;97890.19;4988750;28;19927;-93
2023/09/01 08:05:40;;;;;;;;;;;;;;;16.39;87.54;97887.88;4991735;28;19940;-94
2023/09/01 08:08:08;;;;;;;;;;;;;;;16.42;87.43;97892.69;4994005;28;19925;-94
2023/09/01 08:10:37;;;;;;;;;;;;;;;16.45;87.58;97900.19;4997735;28;19936;-94
2023/09/01 08:13:06;;;;;;;;;;;;;;;16.46;87.79;97897.13;4998422;28;20378;-94
2023/09/01 08:15:34;;;;;;;;;;;;;;;16.50;87.79;97898.00;4993120;28;20001;-94
2023/09/01 08:18:02;;;;;;;;;;;;;;;16.53;88.24;97904.72;4990095;28;19926;-93
2023/09/01 08:20:30;;;;;;;;;;;;;;;16.53;88.38;97907.47;4992885;28;19937;-94
2023/09/01 08:22:58;;;;;;;;;;;;;;;16.53;89.09;97906.69;4997707;28;20025;-94
2023/09/01 08:25:26;;;;;;;;;;;;;;;16.54;89.63;97909.06;5005928;28;19936;-95
2023/09/01 08:27:56;;;;;;;;;;;;;;;16.55;90.11;97913.41;4993563;28;19984;-95
2023/09/01 08:30:23;;;;;;;;;;;;;;;16.54;90.55;97911.81;4993966;28;19925;-96
2023/09/01 08:32:51;;;;;;;;;;;;;;;16.55;91.11;97912.59;4993784;28;19933;-95
2023/09/01 08:35:19;;;;;;;;;;;;;;;16.56;91.08;97920.47;5000893;28;20633;-95
2023/09/01 08:37:47;;;;;;;;;;;;;;;16.60;90.82;97918.63;4991444;28;19950;-96
2023/09/01 08:40:15;;;;;;;;;;;;;;;16.61;91.46;97920.22;4986129;28;19933;-95
2023/09/01 08:42:45;;;;;;;;;;;;;;;16.63;91.21;97922.63;4992847;28;19933;-95
2023/09/01 08:45:16;;;;;;;;;;;;;;;16.61;91.29;97920.22;4989405;28;19934;-88
2023/09/01 08:47:45;;;;;;;;;;;;;;;16.61;90.86;97922.97;4985187;28;19948;-88
2023/09/01 08:50:13;;;;;;;;;;;;;;;16.60;90.99;97923.31;4987657;28;19925;-90
2023/09/01 08:52:42;;;;;;;;;;;;;;;16.53;91.45;97928.63;4982569;28;19934;-90
2023/09/01 08:55:10;;;;;;;;;;;;;;;16.53;91.36;97925.88;5000199;28;19936;-91
2023/09/01 08:57:38;;;;;;;;;;;;;;;16.56;90.62;97936.94;4999587;28;19926;-90
2023/09/01 09:00:08;;;;;;;;;;;;;;;16.60;90.68;97935.09;4990647;28;19930;-90
2023/09/01 09:02:40;;;;;;;;;;;;;;;16.58;90.83;97931.13;4983430;28;21689;-90
2023/09/01 09:05:16;;;;;;;;;;;;;;;16.60;90.96;97935.09;4983341;28;19926;-88
2023/09/01 09:07:44;;;;;;;;;;;;;;;16.65;91.00;97934.84;4990253;28;19972;-88
2023/09/01 09:10:12;;;;;;;;;;;;;;;16.66;91.37;97932.88;4988228;28;20395;-89
2023/09/01 09:12:41;;;;;;;;;;;;;;;16.68;91.50;97936.88;4988498;28;19926;-89
2023/09/01 09:15:09;;;;;;;;;;;;;;;16.71;91.77;97938.94;4984886;28;19930;-90
2023/09/01 09:17:42;;;;;;;;;;;;;;;16.73;91.80;97933.13;4991646;28;19930;-90
2023/09/01 09:20:10;;;;;;;;;;;;;;;16.73;92.26;97933.94;4990621;28;19929;-91
2023/09/01 09:22:49;;;;;;;;;;;;;;;16.71;92.65;97933.47;5005255;28;19936;-90
2023/09/01 09:25:24;;;;;;;;;;;;;;;16.71;92.60;97929.94;4988476;28;19989;-90
2023/09/01 09:27:52;;;;;;;;;;;;;;;16.72;92.59;97931.50;4986152;28;19925;-89
2023/09/01 09:30:20;;;;;;;;;;;;;;;16.72;92.80;97937.81;4983049;28;19929;-89
2023/09/01 09:33:02;;;;;;;;;;;;;;;16.74;92.90;97951.19;4988376;28;19929;-89
2023/09/01 09:35:30;;;;;;;;;;;;;;;16.76;93.11;97938.69;4988494;28;19925;-89
2023/09/01 09:37:59;;;;;;;;;;;;;;;16.81;93.22;97939.59;5003828;28;19937;-88
2023/09/01 09:40:27;;;;;;;;;;;;;;;16.83;93.63;97942.78;4989137;28;19925;-87
2023/09/01 09:42:59;;;;;;;;;;;;;;;16.81;94.02;97945.88;4989523;28;19926;-88
2023/09/01 09:45:28;;;;;;;;;;;;;;;16.84;94.19;97938.91;4983870;28;19930;-89
2023/09/01 09:48:01;;;;;;;;;;;;;;;16.86;94.94;97934.66;4992127;28;19980;-88
2023/09/01 09:50:29;;;;;;;;;;;;;;;16.95;94.40;97935.28;5006782;28;19926;-88
2023/09/01 09:52:58;;;;;;;;;;;;;;;17.03;94.52;97928.03;4994866;28;19936;-88
2023/09/01 09:55:27;;;;;;;;;;;;;;;17.12;94.65;97933.34;4993148;28;19929;-92
2023/09/01 09:57:58;;;;;;;;;;;;;;;17.18;95.19;97931.94;4989756;28;19926;-92
2023/09/01 10:00:29;;;;;;;;;;;;;;;17.26;95.25;97931.75;4986160;28;19925;-92
2023/09/01 10:03:00;;;;;;;;;;;;;;;17.34;95.84;97940.16;4987359;28;19985;-91
2023/09/01 10:05:32;;;;;;;;;;;;;;;17.33;93.95;97938.56;4987196;28;19925;-91
2023/09/01 10:08:02;;;;;;;;;;;;;;;17.42;94.93;97936.47;4982881;28;19958;-91
2023/09/01 10:10:31;;;;;;;;;;;;;;;17.49;94.46;97936.63;4983762;28;20005;-91
2023/09/01 10:12:59;;;;;;;;;;;;;;;17.51;95.10;97920.56;4989546;28;19926;-92
2023/09/01 10:15:27;;;;;;;;;;;;;;;17.55;94.06;97929.69;4998987;28;20464;-92
2023/09/01 10:17:55;;;;;;;;;;;;;;;17.61;94.81;97933.75;4976025;28;20017;-92
2023/09/01 10:20:23;;;;;;;;;;;;;;;17.64;95.02;97926.78;5008932;28;20408;-92
2023/09/01 10:22:54;;;;;;;;;;;;;;;17.64;94.78;97935.00;4992045;28;20313;-92
2023/09/01 10:25:23;;;;;;;;;;;;;;;17.66;94.23;97929.94;4986905;28;19934;-92
2023/09/01 10:28:04;;;;;;;;;;;;;;;17.72;94.11;97934.84;5006160;28;19930;-91
2023/09/01 10:30:32;;;;;;;;;;;;;;;17.77;87.00;97931.00;4983317;28;20525;-92
2023/09/01 10:33:05;;;;;;;;;;;;;;;17.88;88.06;97931.25;5008308;28;20301;-92
2023/09/01 10:35:40;;;;;;;;;;;;;;;17.94;88.75;97938.06;4993264;28;20300;-92
2023/09/01 10:38:12;;;;;;;;;;;;;;;17.96;86.18;97927.53;5000786;28;19927;-92
2023/09/01 10:40:40;;;;;;;;;;;;;;;18.00;85.52;97929.19;4986958;28;19926;-92
2023/09/01 10:43:11;;;;;;;;;;;;;;;18.04;85.49;97934.75;4993607;28;19964;-92
2023/09/01 10:45:39;;;;;;;;;;;;;;;18.05;87.07;97926.13;4990613;28;19969;-91
2023/09/01 10:48:11;;;;;;;;;;;;;;;18.07;87.12;97928.53;4980438;28;19933;-91
2023/09/01 10:50:43;;;;;;;;;;;;;;;18.01;87.85;97932.75;4988418;28;19933;-92
2023/09/01 10:53:30;;;;;;;;;;;;;;;17.97;86.91;97929.09;4985584;28;19953;-91
2023/09/01 10:56:09;;;;;;;;;;;;;;;17.95;87.87;97932.22;4981488;28;19930;-92
2023/09/01 10:58:38;;;;;;;;;;;;;;;17.98;87.19;97930.69;4990817;28;19977;-92
2023/09/01 11:01:39;;;;;;;;;;;;;;;18.01;87.58;97930.78;4988637;28;19926;-92
2023/09/01 11:04:26;;;;;;;;;;;;;;;18.13;87.48;97931.81;4989675;28;19938;-92
2023/09/01 11:07:00;;;;;;;;;;;;;;;18.16;86.97;97926.38;4988888;28;19926;-92
2023/09/01 11:09:43;;;;;;;;;;;;;;;18.22;85.49;97930.44;4995178;28;19957;-91
2023/09/01 11:12:13;;;;;;;;;;;;;;;18.30;84.80;97929.41;4972091;28;20093;-92
2023/09/01 11:14:54;;;;;;;;;;;;;;;18.27;85.08;97932.91;4963034;28;20366;-91
2023/09/01 11:17:38;;;;;;;;;;;;;;;18.28;84.71;97929.00;4984624;28;19926;-91
2023/09/01 11:20:09;;;;;;;;;;;;;;;18.29;84.69;97940.78;4977353;28;20020;-92
2023/09/01 11:22:40;;;;;;;;;;;;;;;18.31;84.00;97941.22;4976910;28;19926;-92
2023/09/01 11:25:10;;;;;;;;;;;;;;;18.33;84.35;97936.16;4977321;28;19929;-92
2023/09/01 11:27:39;;;;;;;;;;;;;;;18.34;83.12;97935.00;4975553;28;19934;-92
2023/09/01 11:30:08;;;;;;;;;;;;;;;18.41;83.15;97934.34;4980256;28;19941;-92
2023/09/01 11:32:36;;;;;;;;;;;;;;;18.41;82.83;97937.88;4982694;28;20436;-91
2023/09/01 11:35:05;;;;;;;;;;;;;;;18.40;82.85;97938.25;4977500;28;19925;-92
2023/09/01 11:37:37;;;;;;;;;;;;;;;18.41;82.23;97937.09;4995147;28;19941;-92
2023/09/01 11:40:12;;;;;;;;;;;;;;;18.42;82.12;97928.47;4994747;28;19926;-92
2023/09/01 11:42:42;;;;;;;;;;;;;;;18.42;82.01;97933.97;4993980;28;19952;-91
2023/09/01 11:45:12;;;;;;;;;;;;;;;18.46;81.62;97931.31;4986426;28;19926;-92
2023/09/01 11:47:40;;;;;;;;;;;;;;;18.44;81.72;97931.69;4995971;28;19930;-92
2023/09/01 11:50:12;;;;;;;;;;;;;;;18.48;80.07;97937.22;4976334;28;19926;-92
2023/09/01 11:52:53;;;;;;;;;;;;;;;18.67;78.10;97931.72;5001524;28;19934;-92
2023/09/01 11:55:43;;;;;;;;;;;;;;;18.68;78.44;97936.09;4999669;28;19926;-91
2023/09/01 11:58:12;;;;;;;;;;;;;;;18.73;78.60;97932.25;5002042;28;20613;-91
2023/09/01 12:00:40;;;;;;;;;;;;;;;18.72;78.35;97931.47;4989365;28;19926;-91
2023/09/01 12:03:08;;;;;;;;;;;;;;;18.69;78.43;97932.19;4993818;28;19926;-92
2023/09/01 12:05:37;;;;;;;;;;;;;;;18.67;79.01;97933.69;4987200;28;19984;-92
2023/09/01 12:08:07;;;;;;;;;;;;;;;18.68;78.04;97930.59;4995337;28;19932;-91
2023/09/01 12:10:35;;;;;;;;;;;;;;;18.70;78.48;97928.28;4995168;28;19972;-91
2023/09/01 12:13:07;;;;;;;;;;;;;;;18.72;79.11;97920.44;5009414;28;19926;-90
2023/09/01 12:15:51;;;;;;;;;;;;;;;18.79;77.78;97926.06;5002382;28;19933;-91
2023/09/01 12:18:34;;;;;;;;;;;;;;;19.11;74.35;97931.38;4993208;28;19926;-92
2023/09/01 12:21:03;;;;;;;;;;;;;;;19.21;74.07;97925.25;5007733;28;19979;-92
2023/09/01 12:23:31;;;;;;;;;;;;;;;19.22;74.48;97917.78;4995061;28;19936;-91
2023/09/01 12:25:59;;;;;;;;;;;;;;;19.22;75.10;97926.84;4990351;28;19930;-92
2023/09/01 12:28:28;;;;;;;;;;;;;;;19.28;74.18;97916.31;4991813;28;19976;-91
2023/09/01 12:30:55;;;;;;;;;;;;;;;19.36;72.86;97913.31;5001079;28;19936;-91
2023/09/01 12:33:23;;;;;;;;;;;;;;;19.52;71.12;97909.63;4991326;28;19930;-92
2023/09/01 12:35:53;;;;;;;;;;;;;;;19.48;74.19;97911.50;4983208;28;20385;-92
2023/09/01 12:38:21;;;;;;;;;;;;;;;19.47;73.54;97907.97;5006368;28;19926;-91
2023/09/01 12:40:49;;;;;;;;;;;;;;;19.48;73.93;97909.56;4990817;28;20300;-91
2023/09/01 12:43:17;;;;;;;;;;;;;;;19.48;73.38;97911.50;4993817;28;19925;-92
2023/09/01 12:45:45;;;;;;;;;;;;;;;19.59;71.91;97905.03;5008907;28;20415;-91
2023/09/01 12:48:15;;;;;;;;;;;;;;;19.57;71.79;97912.84;5003655;28;19930;-91
2023/09/01 12:50:44;;;;;;;;;;;;;;;19.43;72.87;97914.59;5009722;28;19925;-90
2023/09/01 12:53:13;;;;;;;;;;;;;;;19.45;71.97;97917.78;4993210;28;19926;-92
2023/09/01 12:55:42;;;;;;;;;;;;;;;19.41;73.92;97908.66;4991448;28;19925;-91
2023/09/01 12:58:10;;;;;;;;;;;;;;;19.40;72.95;97904.31;4998073;28;20394;-91
2023/09/01 13:00:41;;;;;;;;;;;;;;;19.43;72.66;97909.06;4992860;28;19930;-90
2023/09/01 13:03:09;;;;;;;;;;;;;;;19.42;73.11;97904.72;4988167;28;19925;-90